East Lyme, Connecticut
Current Conditions -  °F | °C
As of 6:56 PM on Sunday 25 Jan 2015 (Local Time) from KGON Reporting Station
Clear Clear  
Wind Chill: 21°   Ceiling: Unl
Heat Index: 28°   Visibility: 10mi
Dew Point: 10°   Wind: 7mph
Humidity: 47%   Direction: 330°NNW
Pressure: 29.9"   Gusts: NA
Location:  41.37°N, 72.22°W
Report Text: KGON 252356Z 33006KT 10SM CLR M02/M12 A2990 RMK AO2 SLP125 T10221122 10044 21028 53041 $
Loading
Personal Weather Stations






























Interactive Weather Map New forecast layout! Learn more

10-Day Weather Forecast

Advertisements
Track Severe Weather on mobile